Time;durP1;ratioP1;P1;durP2;ratioP2;P2;SDS_P1;SDS_P2;PMS_P1;PMS_P2;Temp;Humidity;BMP_temperature;BMP_pressure;BME280_temperature;BME280_humidity;BME280_pressure;Samples;Min_cycle;Max_cycle;Signal;HPM_P1;HPM_P2
2023/05/01 00:01:51;;;;;;;;;;;9.20;99.90;;;;;;5039792;28;19931;-75
2023/05/01 00:04:16;;;;;;;;;;;9.10;99.90;;;;;;5060688;28;20784;-75
2023/05/01 00:06:42;;;;;;;;;;;9.10;99.90;;;;;;5059796;28;20523;-75
2023/05/01 00:09:08;;;;;;;;;;;9.20;99.90;;;;;;5065235;28;19928;-75
2023/05/01 00:11:35;;;;;;;;;;;9.20;99.90;;;;;;5066627;28;20026;-75
2023/05/01 00:14:00;;;;;;;;;;;9.00;99.90;;;;;;5054207;28;20600;-75
2023/05/01 00:16:26;;;;;;;;;;;9.00;99.90;;;;;;5062012;28;19936;-75
2023/05/01 00:18:51;;;;;;;;;;;8.80;99.90;;;;;;5062241;28;19924;-75
2023/05/01 00:21:17;;;;;;;;;;;8.80;99.90;;;;;;5062545;28;20507;-75
2023/05/01 00:23:42;;;;;;;;;;;8.70;99.90;;;;;;5064062;28;19928;-75
2023/05/01 00:26:08;;;;;;;;;;;8.90;99.90;;;;;;5064674;28;19994;-75
2023/05/01 00:28:33;;;;;;;;;;;8.80;99.90;;;;;;5061172;28;20373;-75
2023/05/01 00:30:59;;;;;;;;;;;8.90;99.90;;;;;;5058227;28;20342;-75
2023/05/01 00:33:24;;;;;;;;;;;8.90;99.90;;;;;;5060770;28;19933;-75
2023/05/01 00:35:51;;;;;;;;;;;8.90;99.90;;;;;;5054622;28;19928;-75
2023/05/01 00:38:17;;;;;;;;;;;8.80;99.90;;;;;;5049145;28;20097;-75
2023/05/01 00:40:43;;;;;;;;;;;8.70;99.90;;;;;;5062200;28;19932;-75
2023/05/01 00:43:09;;;;;;;;;;;8.70;99.90;;;;;;5060268;28;19990;-75
2023/05/01 00:45:34;;;;;;;;;;;8.60;99.90;;;;;;5055981;28;20097;-75
2023/05/01 00:48:00;;;;;;;;;;;8.70;99.90;;;;;;5066822;28;20075;-75
2023/05/01 00:50:25;;;;;;;;;;;8.60;99.90;;;;;;5062221;28;20492;-75
2023/05/01 00:52:51;;;;;;;;;;;8.70;99.90;;;;;;5066461;28;20220;-75
2023/05/01 00:55:16;;;;;;;;;;;8.50;99.90;;;;;;5062777;28;20477;-75
2023/05/01 00:57:42;;;;;;;;;;;8.50;99.90;;;;;;5062587;28;19978;-74
2023/05/01 01:00:10;;;;;;;;;;;8.50;99.90;;;;;;5059917;28;20023;-75
2023/05/01 01:02:35;;;;;;;;;;;8.40;99.90;;;;;;5061593;28;19932;-75
2023/05/01 01:05:03;;;;;;;;;;;8.50;99.90;;;;;;5065513;28;19944;-75
2023/05/01 01:07:32;;;;;;;;;;;8.40;99.90;;;;;;5062749;28;19935;-75
2023/05/01 01:10:08;;;;;;;;;;;8.40;99.90;;;;;;5064352;28;19932;-75
2023/05/01 01:12:36;;;;;;;;;;;8.40;99.90;;;;;;5062883;28;19928;-75
2023/05/01 01:15:05;;;;;;;;;;;8.40;99.90;;;;;;5057862;28;19928;-76
2023/05/01 01:17:36;;;;;;;;;;;8.30;99.90;;;;;;5065356;28;20593;-76
2023/05/01 01:20:20;;;;;;;;;;;8.10;99.90;;;;;;5065376;28;19950;-76
2023/05/01 01:22:50;;;;;;;;;;;8.10;99.90;;;;;;5056758;28;20368;-76
2023/05/01 01:25:18;;;;;;;;;;;8.00;99.90;;;;;;5056071;28;19928;-76
2023/05/01 01:27:43;;;;;;;;;;;8.00;99.90;;;;;;5059754;28;19935;-76
2023/05/01 01:30:12;;;;;;;;;;;8.00;99.90;;;;;;5048994;28;19968;-76
2023/05/01 01:32:57;;;;;;;;;;;8.00;99.90;;;;;;5060384;28;20443;-76
2023/05/01 01:35:25;;;;;;;;;;;7.90;99.90;;;;;;5060740;28;19932;-76
2023/05/01 01:37:52;;;;;;;;;;;7.80;99.90;;;;;;5059246;28;19928;-76
2023/05/01 01:40:19;;;;;;;;;;;7.80;99.90;;;;;;5050884;28;20383;-77
2023/05/01 01:42:57;;;;;;;;;;;7.80;99.90;;;;;;5053398;28;19932;-77
2023/05/01 01:45:28;;;;;;;;;;;7.90;99.90;;;;;;5056658;28;19928;-76
2023/05/01 01:47:54;;;;;;;;;;;7.90;99.90;;;;;;5063102;28;19928;-77
2023/05/01 01:50:21;;;;;;;;;;;7.80;99.90;;;;;;5058693;28;19935;-77
2023/05/01 01:52:48;;;;;;;;;;;7.70;99.90;;;;;;5067003;28;19931;-76
2023/05/01 01:55:14;;;;;;;;;;;7.70;99.90;;;;;;5060920;28;19928;-77
2023/05/01 01:57:43;;;;;;;;;;;7.60;99.90;;;;;;5059807;28;19928;-76
2023/05/01 02:00:10;;;;;;;;;;;7.70;99.90;;;;;;5064880;28;20304;-77
2023/05/01 02:02:39;;;;;;;;;;;7.60;99.90;;;;;;5061074;28;19933;-77
2023/05/01 02:05:10;;;;;;;;;;;7.50;99.90;;;;;;5058661;28;19953;-77
2023/05/01 02:07:37;;;;;;;;;;;7.50;99.90;;;;;;5057814;28;19982;-77
2023/05/01 02:10:04;;;;;;;;;;;7.50;99.90;;;;;;5063143;28;20014;-77
2023/05/01 02:12:30;;;;;;;;;;;7.50;99.90;;;;;;5061208;28;19932;-77
2023/05/01 02:14:57;;;;;;;;;;;7.40;99.90;;;;;;5062022;28;20392;-77
2023/05/01 02:17:23;;;;;;;;;;;7.30;99.90;;;;;;5065279;28;19955;-77
2023/05/01 02:19:51;;;;;;;;;;;7.30;99.90;;;;;;5064916;28;19960;-77
2023/05/01 02:22:18;;;;;;;;;;;7.30;99.90;;;;;;5065038;28;20523;-77
2023/05/01 02:24:44;;;;;;;;;;;7.30;99.90;;;;;;5063946;28;19932;-77
2023/05/01 02:27:18;;;;;;;;;;;7.40;99.90;;;;;;5066201;28;19928;-76
2023/05/01 02:29:44;;;;;;;;;;;7.30;99.90;;;;;;5062774;28;19928;-76
2023/05/01 02:32:09;;;;;;;;;;;7.20;99.90;;;;;;5058322;28;19936;-76
2023/05/01 02:34:35;;;;;;;;;;;7.10;99.90;;;;;;5057348;28;20282;-76
2023/05/01 02:37:01;;;;;;;;;;;7.20;99.90;;;;;;5060230;28;20054;-76
2023/05/01 02:39:27;;;;;;;;;;;7.10;99.90;;;;;;5058838;28;20098;-76
2023/05/01 02:41:54;;;;;;;;;;;7.10;99.90;;;;;;5064104;28;20751;-77
2023/05/01 02:44:22;;;;;;;;;;;7.10;99.90;;;;;;5062376;28;19942;-77
2023/05/01 02:46:49;;;;;;;;;;;7.00;99.90;;;;;;5063039;28;19938;-77
2023/05/01 02:49:15;;;;;;;;;;;7.00;99.90;;;;;;5062096;28;19954;-77
2023/05/01 02:51:42;;;;;;;;;;;7.00;99.90;;;;;;5069195;28;20532;-77
2023/05/01 02:54:07;;;;;;;;;;;6.90;99.90;;;;;;5070277;28;19924;-76
2023/05/01 02:56:33;;;;;;;;;;;7.00;99.90;;;;;;5071203;28;19935;-76
2023/05/01 02:58:59;;;;;;;;;;;7.00;99.90;;;;;;5064261;28;19928;-77
2023/05/01 03:01:25;;;;;;;;;;;7.00;99.90;;;;;;5069290;28;19954;-77
2023/05/01 03:03:51;;;;;;;;;;;7.00;99.90;;;;;;5070741;28;19955;-76
2023/05/01 03:06:21;;;;;;;;;;;7.00;99.90;;;;;;5070304;28;19934;-76
2023/05/01 03:08:47;;;;;;;;;;;7.00;99.90;;;;;;5060668;28;20715;-76
2023/05/01 03:11:13;;;;;;;;;;;6.90;99.90;;;;;;5074665;28;20030;-76
2023/05/01 03:13:39;;;;;;;;;;;6.90;99.90;;;;;;5076476;28;19929;-76
2023/05/01 03:16:04;;;;;;;;;;;7.00;99.90;;;;;;5060274;28;19973;-76
2023/05/01 03:18:30;;;;;;;;;;;7.00;99.90;;;;;;5074836;28;20037;-76
2023/05/01 03:20:55;;;;;;;;;;;7.00;99.90;;;;;;5074218;28;19968;-76
2023/05/01 03:23:22;;;;;;;;;;;7.00;99.90;;;;;;5075891;28;19932;-77
2023/05/01 03:25:48;;;;;;;;;;;7.00;99.90;;;;;;5074567;28;20790;-77
2023/05/01 03:28:13;;;;;;;;;;;7.00;99.90;;;;;;5072437;28;20019;-77
2023/05/01 03:30:39;;;;;;;;;;;7.00;99.90;;;;;;5072022;28;19928;-77
2023/05/01 03:33:05;;;;;;;;;;;7.10;99.90;;;;;;5072998;28;19981;-76
2023/05/01 03:35:30;;;;;;;;;;;7.10;99.90;;;;;;5076967;28;19932;-77
2023/05/01 03:37:56;;;;;;;;;;;7.10;99.90;;;;;;5078425;28;20376;-76
2023/05/01 03:40:22;;;;;;;;;;;7.00;99.90;;;;;;5076487;28;19967;-76
2023/05/01 03:42:47;;;;;;;;;;;7.10;99.90;;;;;;5079300;28;20094;-77
2023/05/01 03:45:13;;;;;;;;;;;7.00;99.90;;;;;;5076488;28;19932;-76
2023/05/01 03:47:39;;;;;;;;;;;7.00;99.90;;;;;;5080737;28;20007;-76
2023/05/01 03:50:04;;;;;;;;;;;7.10;99.90;;;;;;5078630;28;19928;-77
2023/05/01 03:52:30;;;;;;;;;;;7.00;99.90;;;;;;5077404;28;19964;-77
2023/05/01 03:54:56;;;;;;;;;;;7.00;99.90;;;;;;5078853;28;20687;-76
2023/05/01 03:57:22;;;;;;;;;;;6.90;99.90;;;;;;5076362;28;19924;-76
2023/05/01 03:59:48;;;;;;;;;;;7.00;99.90;;;;;;5075237;28;20322;-76
2023/05/01 04:02:13;;;;;;;;;;;6.90;99.90;;;;;;5058559;28;19929;-76
2023/05/01 04:04:39;;;;;;;;;;;6.90;99.90;;;;;;5074522;28;19924;-77
2023/05/01 04:07:04;;;;;;;;;;;6.90;99.90;;;;;;5076896;28;19934;-77
2023/05/01 04:09:30;;;;;;;;;;;6.90;99.90;;;;;;5076653;28;19936;-76
2023/05/01 04:11:56;;;;;;;;;;;7.00;99.90;;;;;;5074899;28;19935;-76
2023/05/01 04:14:21;;;;;;;;;;;6.90;99.90;;;;;;5075927;28;20021;-76
2023/05/01 04:16:47;;;;;;;;;;;7.00;99.90;;;;;;5078253;28;20494;-76
2023/05/01 04:19:12;;;;;;;;;;;7.00;99.90;;;;;;5077996;28;19924;-76
2023/05/01 04:21:38;;;;;;;;;;;7.00;99.90;;;;;;5069215;28;19928;-76
2023/05/01 04:24:03;;;;;;;;;;;7.00;99.90;;;;;;5061250;28;19969;-76
2023/05/01 04:26:29;;;;;;;;;;;7.00;99.90;;;;;;5075499;28;19931;-77
2023/05/01 04:28:55;;;;;;;;;;;7.10;99.90;;;;;;5079663;28;20531;-76
2023/05/01 04:31:20;;;;;;;;;;;7.10;99.90;;;;;;5071883;28;20059;-76
2023/05/01 04:33:46;;;;;;;;;;;7.10;99.90;;;;;;5077343;28;19928;-76
2023/05/01 04:36:12;;;;;;;;;;;7.10;99.90;;;;;;5060179;28;19982;-76
2023/05/01 04:38:38;;;;;;;;;;;7.10;99.90;;;;;;5079068;28;20361;-76
2023/05/01 04:41:04;;;;;;;;;;;7.10;99.90;;;;;;5076342;28;19932;-76
2023/05/01 04:43:30;;;;;;;;;;;7.20;99.90;;;;;;5076186;28;19959;-76
2023/05/01 04:45:55;;;;;;;;;;;7.20;99.90;;;;;;5075801;28;20016;-76
2023/05/01 04:48:21;;;;;;;;;;;7.20;99.90;;;;;;5077448;28;19974;-76
2023/05/01 04:50:46;;;;;;;;;;;7.20;99.90;;;;;;5077106;28;20425;-76
2023/05/01 04:53:12;;;;;;;;;;;7.40;99.90;;;;;;5073579;28;20579;-76
2023/05/01 04:55:37;;;;;;;;;;;7.40;99.90;;;;;;5073691;28;19929;-76
2023/05/01 04:58:03;;;;;;;;;;;7.50;99.90;;;;;;5077786;28;20089;-76
2023/05/01 05:00:29;;;;;;;;;;;7.50;99.90;;;;;;5068199;28;19935;-77
2023/05/01 05:02:55;;;;;;;;;;;7.70;99.90;;;;;;5073616;28;20270;-75
2023/05/01 05:05:21;;;;;;;;;;;8.00;99.90;;;;;;5076899;28;19971;-77
2023/05/01 05:07:47;;;;;;;;;;;8.10;99.90;;;;;;5072256;28;19928;-77
2023/05/01 05:10:12;;;;;;;;;;;8.00;99.90;;;;;;5093314;27;20313;-76
2023/05/01 05:12:38;;;;;;;;;;;8.10;99.90;;;;;;5073311;28;19928;-76
2023/05/01 05:15:04;;;;;;;;;;;8.70;99.90;;;;;;5073385;28;19928;-77
2023/05/01 05:17:29;;;;;;;;;;;8.30;99.90;;;;;;5077854;28;19980;-77
2023/05/01 05:19:55;;;;;;;;;;;8.30;99.90;;;;;;5074254;28;19928;-76
2023/05/01 05:22:20;;;;;;;;;;;9.00;99.90;;;;;;5075308;28;19932;-77
2023/05/01 05:24:46;;;;;;;;;;;9.10;99.90;;;;;;5077186;28;19928;-77
2023/05/01 05:27:11;;;;;;;;;;;8.80;99.90;;;;;;5076428;28;19928;-76
2023/05/01 05:29:37;;;;;;;;;;;8.80;99.90;;;;;;5074788;28;19932;-76
2023/05/01 05:32:03;;;;;;;;;;;8.60;99.90;;;;;;5073035;28;19928;-77
2023/05/01 05:34:28;;;;;;;;;;;8.70;99.90;;;;;;5077286;28;19924;-76
2023/05/01 05:36:54;;;;;;;;;;;8.60;99.90;;;;;;5078428;28;19928;-77
2023/05/01 05:39:22;;;;;;;;;;;8.90;99.90;;;;;;5077576;28;20302;-77
2023/05/01 05:41:48;;;;;;;;;;;9.30;99.90;;;;;;5073325;28;19928;-75
2023/05/01 05:44:14;;;;;;;;;;;10.00;99.90;;;;;;5074037;28;19928;-76
2023/05/01 05:46:39;;;;;;;;;;;9.80;99.90;;;;;;5075413;28;20430;-77
2023/05/01 05:49:05;;;;;;;;;;;9.60;99.90;;;;;;5077359;28;20317;-76
2023/05/01 05:51:30;;;;;;;;;;;9.60;99.90;;;;;;5072901;28;19928;-77
2023/05/01 05:53:56;;;;;;;;;;;9.40;99.90;;;;;;5076369;28;19928;-77
2023/05/01 05:56:23;;;;;;;;;;;9.50;99.90;;;;;;5070798;28;19934;-77
2023/05/01 05:58:48;;;;;;;;;;;9.70;99.90;;;;;;5070734;28;19931;-77
2023/05/01 06:01:15;;;;;;;;;;;9.50;99.90;;;;;;5066919;28;19932;-77
2023/05/01 06:03:40;;;;;;;;;;;9.50;99.90;;;;;;5074300;28;19932;-77
2023/05/01 06:06:06;;;;;;;;;;;9.70;99.90;;;;;;5072570;28;19976;-76
2023/05/01 06:08:34;;;;;;;;;;;10.20;99.90;;;;;;5075384;28;19928;-76
2023/05/01 06:10:59;;;;;;;;;;;10.10;99.90;;;;;;5070453;28;19939;-77
2023/05/01 06:13:25;;;;;;;;;;;10.00;99.90;;;;;;5073550;28;19941;-76
2023/05/01 06:15:51;;;;;;;;;;;10.90;99.90;;;;;;5067405;28;20026;-76
2023/05/01 06:18:16;;;;;;;;;;;10.90;99.90;;;;;;5074958;28;19927;-76
2023/05/01 06:20:42;;;;;;;;;;;10.40;99.90;;;;;;5073253;28;19924;-77
2023/05/01 06:23:08;;;;;;;;;;;11.20;99.90;;;;;;5068956;28;19931;-75
2023/05/01 06:25:34;;;;;;;;;;;11.50;99.90;;;;;;5072431;28;20022;-77
2023/05/01 06:28:00;;;;;;;;;;;11.20;99.90;;;;;;5069008;28;20026;-77
2023/05/01 06:30:25;;;;;;;;;;;11.20;99.90;;;;;;5074174;28;19936;-77
2023/05/01 06:32:51;;;;;;;;;;;11.70;99.90;;;;;;5070975;28;19928;-77
2023/05/01 06:35:16;;;;;;;;;;;12.00;99.90;;;;;;5072802;28;19928;-77
2023/05/01 06:37:42;;;;;;;;;;;12.20;99.90;;;;;;5074083;28;19969;-76
2023/05/01 06:40:08;;;;;;;;;;;12.00;99.90;;;;;;5073388;28;19928;-76
2023/05/01 06:42:34;;;;;;;;;;;12.20;99.90;;;;;;5068470;28;20019;-77
2023/05/01 06:45:00;;;;;;;;;;;11.80;99.90;;;;;;5070692;28;19932;-77
2023/05/01 06:47:25;;;;;;;;;;;11.60;99.90;;;;;;5076569;28;20422;-77
2023/05/01 06:49:51;;;;;;;;;;;11.30;99.90;;;;;;5075949;28;19928;-77
2023/05/01 06:52:16;;;;;;;;;;;11.10;99.90;;;;;;5072688;28;19935;-77
2023/05/01 06:54:42;;;;;;;;;;;10.90;99.90;;;;;;5073332;28;19933;-76
2023/05/01 06:57:07;;;;;;;;;;;10.90;99.90;;;;;;5074542;28;19928;-77
2023/05/01 06:59:33;;;;;;;;;;;10.90;99.90;;;;;;5068375;28;19932;-77
2023/05/01 07:02:14;;;;;;;;;;;11.20;99.90;;;;;;5067435;28;20289;-77
2023/05/01 07:04:40;;;;;;;;;;;11.10;99.90;;;;;;5052324;28;20022;-77
2023/05/01 07:07:06;;;;;;;;;;;11.40;99.90;;;;;;5071583;28;19981;-77
2023/05/01 07:09:31;;;;;;;;;;;11.10;99.90;;;;;;5073927;28;19933;-78
2023/05/01 07:11:57;;;;;;;;;;;11.50;99.90;;;;;;5072155;28;20062;-77
2023/05/01 07:14:23;;;;;;;;;;;11.50;99.90;;;;;;5073943;28;19950;-77
2023/05/01 07:16:49;;;;;;;;;;;11.50;99.90;;;;;;5068183;28;19931;-77
2023/05/01 07:19:14;;;;;;;;;;;11.30;99.90;;;;;;5059360;28;19967;-77
2023/05/01 07:21:40;;;;;;;;;;;11.80;99.90;;;;;;5068779;28;19985;-77
2023/05/01 07:24:05;;;;;;;;;;;12.10;99.90;;;;;;5072169;28;19977;-77
2023/05/01 07:26:31;;;;;;;;;;;11.60;99.90;;;;;;5076350;28;19932;-77
2023/05/01 07:28:57;;;;;;;;;;;11.90;99.90;;;;;;5075843;28;19968;-77
2023/05/01 07:31:22;;;;;;;;;;;11.90;99.90;;;;;;5076113;28;19974;-77
2023/05/01 07:33:48;;;;;;;;;;;12.40;99.90;;;;;;5069557;28;20011;-77
2023/05/01 07:36:13;;;;;;;;;;;12.30;99.90;;;;;;5069835;28;20009;-77
2023/05/01 07:38:39;;;;;;;;;;;11.80;99.90;;;;;;5071202;28;19928;-77
2023/05/01 07:41:05;;;;;;;;;;;12.20;99.90;;;;;;5077272;28;19928;-77
2023/05/01 07:43:30;;;;;;;;;;;12.70;99.90;;;;;;5071836;28;20029;-77
2023/05/01 07:45:57;;;;;;;;;;;12.90;99.90;;;;;;5056077;28;19935;-77
2023/05/01 07:48:23;;;;;;;;;;;13.00;99.90;;;;;;5075665;28;20027;-77
2023/05/01 07:50:49;;;;;;;;;;;13.30;99.90;;;;;;5072045;28;20014;-77
2023/05/01 07:53:14;;;;;;;;;;;13.40;99.90;;;;;;5072035;28;20027;-77
2023/05/01 07:55:40;;;;;;;;;;;13.60;99.90;;;;;;5075177;28;19949;-77
2023/05/01 07:58:06;;;;;;;;;;;13.40;99.90;;;;;;5073003;28;19937;-77
2023/05/01 08:00:31;;;;;;;;;;;13.60;99.90;;;;;;5073087;28;19928;-77
2023/05/01 08:02:57;;;;;;;;;;;13.60;99.90;;;;;;5066835;28;20347;-78
2023/05/01 08:05:23;;;;;;;;;;;13.00;99.90;;;;;;5064148;28;19924;-77
2023/05/01 08:07:48;;;;;;;;;;;13.20;99.90;;;;;;5062739;28;19924;-77
2023/05/01 08:10:14;;;;;;;;;;;13.60;99.90;;;;;;5059131;28;19959;-77
2023/05/01 08:12:39;;;;;;;;;;;13.60;99.90;;;;;;5065802;28;20396;-77
2023/05/01 08:15:05;;;;;;;;;;;13.30;99.90;;;;;;5068346;28;19936;-77
2023/05/01 08:17:31;;;;;;;;;;;13.00;99.90;;;;;;5065268;28;19935;-77
2023/05/01 08:19:56;;;;;;;;;;;13.50;99.90;;;;;;5076530;28;19979;-77
2023/05/01 08:22:22;;;;;;;;;;;13.90;99.90;;;;;;5071487;28;19924;-78
2023/05/01 08:24:49;;;;;;;;;;;14.00;99.90;;;;;;5075818;28;19991;-77
2023/05/01 08:27:15;;;;;;;;;;;14.30;99.90;;;;;;5076675;28;19972;-78
2023/05/01 08:29:40;;;;;;;;;;;14.20;99.90;;;;;;5071418;28;20039;-78
2023/05/01 08:32:06;;;;;;;;;;;14.30;99.90;;;;;;5071875;28;20598;-77
2023/05/01 08:34:32;;;;;;;;;;;14.90;99.90;;;;;;5073985;28;19975;-78
2023/05/01 08:36:58;;;;;;;;;;;15.20;99.90;;;;;;5078939;28;19963;-77
2023/05/01 08:39:23;;;;;;;;;;;14.80;99.90;;;;;;5072379;28;20308;-78
2023/05/01 08:41:49;;;;;;;;;;;15.70;99.90;;;;;;5056170;28;19924;-79
2023/05/01 08:44:15;;;;;;;;;;;15.50;99.90;;;;;;5079858;28;19932;-77
2023/05/01 08:46:49;;;;;;;;;;;15.70;99.90;;;;;;5077416;28;19948;-77
2023/05/01 08:49:16;;;;;;;;;;;15.90;99.90;;;;;;5072502;28;19990;-77
2023/05/01 08:51:46;;;;;;;;;;;15.50;99.90;;;;;;5076164;28;19932;-77
2023/05/01 08:54:12;;;;;;;;;;;15.50;99.90;;;;;;5077129;28;19973;-77
2023/05/01 08:56:38;;;;;;;;;;;16.00;99.90;;;;;;5075768;28;19928;-78
2023/05/01 08:59:04;;;;;;;;;;;16.40;99.90;;;;;;5072995;28;19995;-77
2023/05/01 09:01:31;;;;;;;;;;;16.70;99.90;;;;;;5075426;28;20278;-77
2023/05/01 09:04:00;;;;;;;;;;;16.80;99.90;;;;;;5075050;28;20530;-78
2023/05/01 09:06:27;;;;;;;;;;;16.80;99.90;;;;;;5069266;28;19990;-78
2023/05/01 09:08:52;;;;;;;;;;;15.90;99.90;;;;;;5069113;28;19933;-79
2023/05/01 09:11:18;;;;;;;;;;;16.00;99.90;;;;;;5066029;28;20058;-77
2023/05/01 09:13:45;;;;;;;;;;;16.20;99.90;;;;;;5068353;28;20012;-77
2023/05/01 09:16:10;;;;;;;;;;;16.70;99.90;;;;;;5066374;28;20382;-77
2023/05/01 09:18:36;;;;;;;;;;;17.10;99.90;;;;;;5075644;28;19928;-76
2023/05/01 09:21:02;;;;;;;;;;;17.40;99.90;;;;;;5076028;28;20671;-77
2023/05/01 09:23:27;;;;;;;;;;;17.80;99.90;;;;;;5075298;28;20385;-77
2023/05/01 09:25:54;;;;;;;;;;;18.00;99.90;;;;;;5073822;28;19928;-77
2023/05/01 09:28:38;;;;;;;;;;;18.10;99.90;;;;;;5072426;28;20407;-77
2023/05/01 09:31:19;;;;;;;;;;;18.20;99.90;;;;;;5072651;28;19924;-77
2023/05/01 09:33:58;;;;;;;;;;;18.10;99.90;;;;;;5074789;28;20632;-76
2023/05/01 09:36:24;;;;;;;;;;;18.30;99.90;;;;;;5074351;28;19928;-77
2023/05/01 09:38:50;;;;;;;;;;;18.60;99.90;;;;;;5068851;28;19975;-77
2023/05/01 09:41:16;;;;;;;;;;;18.70;99.90;;;;;;5069537;28;19967;-77
2023/05/01 09:43:47;;;;;;;;;;;18.90;99.90;;;;;;5067888;28;19932;-77
2023/05/01 09:46:13;;;;;;;;;;;19.10;99.90;;;;;;5069571;28;19970;-77
2023/05/01 09:48:38;;;;;;;;;;;19.10;99.90;;;;;;5067893;28;19931;-77
2023/05/01 09:51:24;;;;;;;;;;;19.30;99.90;;;;;;5071104;28;20550;-77
2023/05/01 09:53:51;;;;;;;;;;;19.60;99.90;;;;;;5072573;28;20373;-78
2023/05/01 09:56:17;;;;;;;;;;;19.50;99.90;;;;;;5071017;28;19924;-78
2023/05/01 09:58:43;;;;;;;;;;;19.70;99.90;;;;;;5071743;28;19934;-77
2023/05/01 10:01:09;;;;;;;;;;;20.00;99.90;;;;;;5072636;28;19996;-77
2023/05/01 10:03:34;;;;;;;;;;;19.70;99.90;;;;;;5068756;28;20370;-78
2023/05/01 10:06:02;;;;;;;;;;;19.80;99.90;;;;;;5071995;28;19936;-78
2023/05/01 10:08:48;;;;;;;;;;;19.70;99.90;;;;;;5073130;28;19975;-77
2023/05/01 10:11:14;;;;;;;;;;;19.90;99.90;;;;;;5066306;28;20022;-77
2023/05/01 10:13:39;;;;;;;;;;;20.30;99.90;;;;;;5060406;28;19932;-77
2023/05/01 10:16:09;;;;;;;;;;;20.10;99.90;;;;;;5064284;28;20396;-78
2023/05/01 10:18:35;;;;;;;;;;;20.00;99.90;;;;;;5067913;28;19928;-78
2023/05/01 10:21:00;;;;;;;;;;;20.10;99.90;;;;;;5073219;28;19924;-78
2023/05/01 10:23:26;;;;;;;;;;;20.50;99.90;;;;;;5068413;28;19928;-78
2023/05/01 10:25:52;;;;;;;;;;;20.30;99.90;;;;;;5066456;28;19932;-77
2023/05/01 10:28:18;;;;;;;;;;;20.50;99.90;;;;;;5062489;28;20482;-79
2023/05/01 10:30:44;;;;;;;;;;;20.20;99.90;;;;;;5072691;28;20317;-77
2023/05/01 10:33:12;;;;;;;;;;;20.00;99.90;;;;;;5070842;28;19936;-77
2023/05/01 10:35:39;;;;;;;;;;;19.20;99.90;;;;;;5071259;28;19931;-77
2023/05/01 10:38:10;;;;;;;;;;;18.80;99.90;;;;;;5065085;28;20528;-78
2023/05/01 10:40:38;;;;;;;;;;;19.20;99.90;;;;;;5067086;28;20393;-77
2023/05/01 10:43:29;;;;;;;;;;;19.90;99.90;;;;;;5071243;28;19935;-77
2023/05/01 10:46:07;;;;;;;;;;;20.30;99.90;;;;;;5072195;28;19928;-77
2023/05/01 10:48:39;;;;;;;;;;;20.70;99.90;;;;;;5058431;28;19939;-77
2023/05/01 10:51:19;;;;;;;;;;;20.80;99.90;;;;;;5047637;28;19928;-77
2023/05/01 10:53:45;;;;;;;;;;;20.60;99.90;;;;;;5067594;28;20399;-77
2023/05/01 10:56:24;;;;;;;;;;;20.80;99.90;;;;;;5061277;28;20039;-78
2023/05/01 10:58:53;;;;;;;;;;;20.50;99.90;;;;;;5065244;28;19924;-78
2023/05/01 11:01:28;;;;;;;;;;;20.70;99.90;;;;;;5067809;28;19979;-78
2023/05/01 11:03:58;;;;;;;;;;;20.90;98.40;;;;;;5069972;28;19977;-78
2023/05/01 11:06:24;;;;;;;;;;;20.30;97.50;;;;;;5075048;28;19978;-77
2023/05/01 11:08:50;;;;;;;;;;;20.30;99.90;;;;;;5068461;28;20381;-77
2023/05/01 11:11:18;;;;;;;;;;;20.50;98.00;;;;;;5070395;28;19981;-78
2023/05/01 11:14:13;;;;;;;;;;;20.40;99.90;;;;;;5071475;28;19966;-78
2023/05/01 11:16:42;;;;;;;;;;;20.80;99.90;;;;;;5061811;28;20014;-78
2023/05/01 11:19:32;;;;;;;;;;;21.50;99.90;;;;;;5071300;28;19928;-77
2023/05/01 11:21:59;;;;;;;;;;;21.10;97.70;;;;;;5072483;28;19932;-78
2023/05/01 11:24:30;;;;;;;;;;;21.20;97.70;;;;;;5071270;28;19931;-78
2023/05/01 11:26:58;;;;;;;;;;;21.70;99.90;;;;;;5069847;28;19979;-77
2023/05/01 11:29:29;;;;;;;;;;;21.80;99.90;;;;;;5075846;28;19971;-78
2023/05/01 11:31:54;;;;;;;;;;;22.00;99.90;;;;;;5070609;28;19931;-77
2023/05/01 11:34:20;;;;;;;;;;;22.30;99.20;;;;;;5076685;28;19933;-78
2023/05/01 11:36:48;;;;;;;;;;;22.10;97.80;;;;;;5074393;28;19924;-78
2023/05/01 11:39:14;;;;;;;;;;;22.10;99.90;;;;;;5073684;28;19936;-77
2023/05/01 11:41:40;;;;;;;;;;;22.00;99.30;;;;;;5051603;28;19928;-78
2023/05/01 11:44:05;;;;;;;;;;;22.50;97.20;;;;;;5076380;28;19978;-78
2023/05/01 11:46:32;;;;;;;;;;;22.50;99.90;;;;;;5065941;28;19932;-78
2023/05/01 11:48:58;;;;;;;;;;;22.80;98.30;;;;;;5061679;28;20488;-78
2023/05/01 11:51:33;;;;;;;;;;;22.50;97.80;;;;;;5067443;28;20444;-78
2023/05/01 11:53:59;;;;;;;;;;;22.40;97.10;;;;;;5071684;28;19927;-78
2023/05/01 11:56:25;;;;;;;;;;;21.80;94.30;;;;;;5073723;28;20432;-77
2023/05/01 11:58:51;;;;;;;;;;;21.30;93.90;;;;;;5072238;28;20467;-79
2023/05/01 12:01:17;;;;;;;;;;;21.60;96.30;;;;;;5074711;28;19986;-78
2023/05/01 12:03:43;;;;;;;;;;;21.10;92.60;;;;;;5076245;28;19924;-78
2023/05/01 12:06:12;;;;;;;;;;;20.70;91.70;;;;;;5078035;28;19932;-78
2023/05/01 12:08:47;;;;;;;;;;;21.60;92.80;;;;;;5060582;28;19971;-77
2023/05/01 12:11:13;;;;;;;;;;;21.00;93.20;;;;;;5056359;28;19932;-78
2023/05/01 12:13:39;;;;;;;;;;;21.90;99.40;;;;;;5078289;28;19944;-79
2023/05/01 12:16:05;;;;;;;;;;;22.10;99.60;;;;;;5078701;28;20026;-78
2023/05/01 12:18:31;;;;;;;;;;;21.50;96.90;;;;;;5075098;28;20011;-78
2023/05/01 12:20:56;;;;;;;;;;;21.80;95.50;;;;;;5077392;28;19931;-77
2023/05/01 12:23:49;;;;;;;;;;;21.90;95.40;;;;;;5067972;28;19994;-77
2023/05/01 12:26:16;;;;;;;;;;;21.90;95.30;;;;;;5056073;28;19957;-78
2023/05/01 12:28:52;;;;;;;;;;;21.20;94.30;;;;;;5068416;28;19997;-78
2023/05/01 12:31:19;;;;;;;;;;;21.80;93.00;;;;;;5078738;28;19928;-77
2023/05/01 12:33:55;;;;;;;;;;;21.80;98.90;;;;;;5079440;28;19964;-78
2023/05/01 12:36:24;;;;;;;;;;;21.90;96.10;;;;;;5076913;28;19931;-78
2023/05/01 12:39:08;;;;;;;;;;;20.80;93.50;;;;;;5071954;28;21012;-78
2023/05/01 12:41:39;;;;;;;;;;;20.80;95.00;;;;;;5077110;28;20036;-79
2023/05/01 12:44:26;;;;;;;;;;;21.50;99.50;;;;;;5073558;28;20015;-78
2023/05/01 12:46:52;;;;;;;;;;;21.70;95.80;;;;;;5073643;28;19928;-78
2023/05/01 12:49:19;;;;;;;;;;;21.30;96.80;;;;;;5078371;28;20293;-78
2023/05/01 12:51:48;;;;;;;;;;;21.10;94.80;;;;;;5073217;28;19928;-78
2023/05/01 12:54:20;;;;;;;;;;;21.80;96.20;;;;;;5075774;28;19928;-79
2023/05/01 12:56:46;;;;;;;;;;;21.50;93.30;;;;;;5075766;28;19932;-78
2023/05/01 12:59:25;;;;;;;;;;;21.30;95.20;;;;;;5076409;28;19932;-78
2023/05/01 13:02:01;;;;;;;;;;;21.40;92.20;;;;;;5072605;28;19935;-77
2023/05/01 13:04:27;;;;;;;;;;;22.10;98.50;;;;;;5076872;28;20408;-78
2023/05/01 13:06:56;;;;;;;;;;;22.40;97.30;;;;;;5077515;28;20282;-78
2023/05/01 13:09:31;;;;;;;;;;;22.40;98.60;;;;;;5068798;28;19983;-79
2023/05/01 13:12:06;;;;;;;;;;;22.20;93.30;;;;;;5071512;28;20377;-79
2023/05/01 13:14:37;;;;;;;;;;;22.40;96.10;;;;;;5070906;28;20621;-78
2023/05/01 13:17:03;;;;;;;;;;;21.70;91.20;;;;;;5073429;28;19940;-78
2023/05/01 13:19:29;;;;;;;;;;;22.10;95.60;;;;;;5066537;28;19928;-78
2023/05/01 13:21:55;;;;;;;;;;;22.30;95.40;;;;;;5075158;28;20022;-78
2023/05/01 13:24:22;;;;;;;;;;;22.60;98.40;;;;;;5078731;28;20363;-78
2023/05/01 13:26:54;;;;;;;;;;;22.30;92.20;;;;;;5073807;28;20508;-78
2023/05/01 13:29:22;;;;;;;;;;;22.70;92.20;;;;;;5071937;28;19971;-78
2023/05/01 13:31:47;;;;;;;;;;;23.00;95.80;;;;;;5070106;28;20317;-79
2023/05/01 13:34:16;;;;;;;;;;;23.30;97.10;;;;;;5071293;28;19930;-77
2023/05/01 13:36:42;;;;;;;;;;;22.80;96.60;;;;;;5070519;28;20613;-78
2023/05/01 13:39:08;;;;;;;;;;;22.20;96.50;;;;;;5075056;28;20023;-78
2023/05/01 13:41:35;;;;;;;;;;;22.10;94.20;;;;;;5074421;28;20027;-78
2023/05/01 13:44:00;;;;;;;;;;;22.40;95.20;;;;;;5050209;28;19932;-79
2023/05/01 13:46:27;;;;;;;;;;;22.70;97.70;;;;;;5065547;28;19936;-79
2023/05/01 13:48:53;;;;;;;;;;;22.70;95.20;;;;;;5072358;28;20377;-78
2023/05/01 13:51:22;;;;;;;;;;;22.40;95.20;;;;;;5073028;28;19943;-77
2023/05/01 13:53:47;;;;;;;;;;;21.90;92.00;;;;;;5077385;28;20368;-79
2023/05/01 13:56:14;;;;;;;;;;;21.90;93.30;;;;;;5074043;28;20059;-79
2023/05/01 13:58:40;;;;;;;;;;;22.30;92.70;;;;;;5069272;28;20007;-77
2023/05/01 14:01:13;;;;;;;;;;;22.10;92.80;;;;;;5070913;28;20405;-79
2023/05/01 14:03:39;;;;;;;;;;;21.80;93.00;;;;;;5070185;28;19924;-78
2023/05/01 14:06:07;;;;;;;;;;;21.50;90.40;;;;;;5070610;28;20348;-79
2023/05/01 14:08:35;;;;;;;;;;;21.20;91.70;;;;;;5076101;28;20308;-78
2023/05/01 14:11:03;;;;;;;;;;;20.60;90.80;;;;;;5068511;28;19971;-77
2023/05/01 14:13:29;;;;;;;;;;;21.10;92.40;;;;;;5079145;28;19939;-79
2023/05/01 14:15:55;;;;;;;;;;;21.30;90.70;;;;;;5075537;28;20452;-78
2023/05/01 14:18:21;;;;;;;;;;;21.60;91.20;;;;;;5074941;28;19924;-79
2023/05/01 14:20:47;;;;;;;;;;;22.00;93.00;;;;;;5071866;28;20038;-78
2023/05/01 14:23:15;;;;;;;;;;;22.30;89.30;;;;;;5078912;28;20344;-78
2023/05/01 14:25:42;;;;;;;;;;;22.70;93.90;;;;;;5056969;28;19928;-78